createdAt,value
2022-07-25T00:00:37.679Z,8.40
2022-07-25T00:03:09.416Z,8.23
2022-07-25T00:05:39.580Z,9.40
2022-07-25T00:08:08.246Z,7.85
2022-07-25T00:10:38.643Z,8.18
2022-07-25T00:13:07.359Z,7.97
2022-07-25T00:15:36.274Z,10.20
2022-07-25T00:18:05.074Z,7.93
2022-07-25T00:20:33.316Z,8.30
2022-07-25T00:23:02.094Z,8.70
2022-07-25T00:25:34.625Z,8.45
2022-07-25T00:28:06.242Z,8.63
2022-07-25T00:30:34.745Z,8.30
2022-07-25T00:33:03.609Z,8.13
2022-07-25T00:35:31.913Z,8.80
2022-07-25T00:38:00.657Z,8.45
2022-07-25T00:40:29.531Z,8.75
2022-07-25T00:42:57.946Z,8.73
2022-07-25T00:45:28.489Z,9.10
2022-07-25T00:47:57.258Z,10.35
2022-07-25T00:50:25.758Z,9.57
2022-07-25T00:52:54.616Z,9.00
2022-07-25T00:55:24.651Z,9.05
2022-07-25T00:57:53.540Z,9.27
2022-07-25T01:00:22.557Z,8.88
2022-07-25T01:02:52.567Z,9.95
2022-07-25T01:05:21.670Z,9.40
2022-07-25T01:07:50.105Z,9.88
2022-07-25T01:10:18.877Z,8.77
2022-07-25T01:12:51.558Z,8.60
2022-07-25T01:15:20.683Z,9.32
2022-07-25T01:17:50.933Z,9.73
2022-07-25T01:20:21.323Z,8.93
2022-07-25T01:22:50.757Z,9.88
2022-07-25T01:25:19.816Z,9.93
2022-07-25T01:27:54.818Z,9.60
2022-07-25T01:30:26.033Z,10.32
2022-07-25T01:32:54.611Z,10.02
2022-07-25T01:35:24.673Z,10.63
2022-07-25T01:37:53.752Z,9.38
2022-07-25T01:40:22.433Z,10.75
2022-07-25T01:42:50.920Z,8.70
2022-07-25T01:45:19.378Z,10.68
2022-07-25T01:47:48.206Z,10.00
2022-07-25T01:50:17.200Z,9.18
2022-07-25T01:52:47.450Z,9.10
2022-07-25T01:55:16.356Z,10.55
2022-07-25T01:57:49.726Z,9.70
2022-07-25T02:00:19.661Z,9.68
2022-07-25T02:02:49.133Z,11.20
2022-07-25T02:05:18.233Z,10.40
2022-07-25T02:07:48.529Z,9.02
2022-07-25T02:10:17.293Z,9.93
2022-07-25T02:12:46.088Z,9.60
2022-07-25T02:15:14.624Z,9.82
2022-07-25T02:17:43.861Z,11.32
2022-07-25T02:20:13.262Z,9.90
2022-07-25T02:22:41.682Z,9.60
2022-07-25T02:25:12.631Z,9.57
2022-07-25T02:27:41.508Z,11.20
2022-07-25T02:30:10.961Z,9.95
2022-07-25T02:32:40.019Z,10.02
2022-07-25T02:35:13.295Z,10.00
2022-07-25T02:37:42.280Z,10.05
2022-07-25T02:40:14.230Z,9.98
2022-07-25T02:42:42.524Z,11.18
2022-07-25T02:45:11.854Z,10.02
2022-07-25T02:47:40.814Z,10.43
2022-07-25T02:50:10.042Z,10.70
2022-07-25T02:52:43.468Z,11.85
2022-07-25T02:55:13.681Z,11.32
2022-07-25T02:57:42.466Z,11.80
2022-07-25T03:00:12.201Z,11.27
2022-07-25T03:02:41.130Z,11.00
2022-07-25T03:05:11.455Z,12.85
2022-07-25T03:07:41.137Z,10.07
2022-07-25T03:10:13.739Z,11.07
2022-07-25T03:12:44.291Z,10.27
2022-07-25T03:15:14.057Z,10.55
2022-07-25T03:17:43.328Z,12.13
2022-07-25T03:20:12.743Z,11.85
2022-07-25T03:22:41.567Z,13.38
2022-07-25T03:25:15.919Z,10.52
2022-07-25T03:27:52.153Z,10.20
2022-07-25T03:30:20.644Z,10.15
2022-07-25T03:32:49.631Z,11.48
2022-07-25T03:35:18.433Z,11.32
2022-07-25T03:37:47.058Z,11.88
2022-07-25T03:40:15.979Z,10.85
2022-07-25T03:42:45.082Z,10.52
2022-07-25T03:45:15.471Z,12.07
2022-07-25T03:47:44.167Z,10.80
2022-07-25T03:50:13.301Z,12.35
2022-07-25T03:52:41.814Z,12.95
2022-07-25T03:55:12.567Z,12.05
2022-07-25T03:57:41.485Z,11.07
2022-07-25T04:00:15.256Z,11.20
2022-07-25T04:02:44.236Z,9.98
2022-07-25T04:05:15.993Z,11.82
2022-07-25T04:07:44.988Z,10.63
2022-07-25T04:10:13.634Z,12.93
2022-07-25T04:12:42.342Z,11.13
2022-07-25T04:15:11.220Z,9.30
2022-07-25T04:17:41.582Z,10.50
2022-07-25T04:20:11.218Z,12.48
2022-07-25T04:22:43.439Z,9.63
2022-07-25T04:25:15.193Z,8.57
2022-07-25T04:27:44.550Z,7.28
2022-07-25T04:30:23.806Z,8.18
2022-07-25T04:32:54.900Z,7.88
2022-07-25T04:35:23.829Z,9.50
2022-07-25T04:37:52.213Z,9.82
2022-07-25T04:40:20.916Z,8.40
2022-07-25T04:42:49.708Z,7.15
2022-07-25T04:45:18.594Z,7.30
2022-07-25T04:47:47.070Z,8.07
2022-07-25T04:50:21.750Z,7.20
2022-07-25T04:52:53.303Z,7.07
2022-07-25T04:55:22.228Z,6.78
2022-07-25T04:57:50.605Z,6.70
2022-07-25T05:00:19.619Z,9.13
2022-07-25T05:02:48.488Z,8.05
2022-07-25T05:05:21.730Z,6.20
2022-07-25T05:07:51.494Z,7.90
2022-07-25T05:10:20.522Z,7.68
2022-07-25T05:12:49.175Z,7.32
2022-07-25T05:15:18.183Z,6.80
2022-07-25T05:17:46.693Z,7.65
2022-07-25T05:20:15.925Z,8.90
2022-07-25T05:22:46.054Z,7.53
2022-07-25T05:25:15.428Z,7.75
2022-07-25T05:27:44.440Z,8.02
2022-07-25T05:30:15.960Z,8.35
2022-07-25T05:32:46.700Z,6.75
2022-07-25T05:35:16.655Z,6.70
2022-07-25T05:37:46.883Z,8.20
2022-07-25T05:40:15.540Z,6.20
2022-07-25T05:42:44.432Z,6.47
2022-07-25T05:45:13.021Z,6.10
2022-07-25T05:47:44.218Z,8.57
2022-07-25T05:50:12.840Z,8.63
2022-07-25T05:52:41.448Z,7.43
2022-07-25T05:55:11.983Z,7.35
2022-07-25T05:57:40.695Z,7.00
2022-07-25T06:00:10.449Z,5.90
2022-07-25T06:02:39.326Z,5.82
2022-07-25T06:05:11.060Z,6.10
2022-07-25T06:07:39.956Z,6.25
2022-07-25T06:10:09.807Z,6.07
2022-07-25T06:12:40.682Z,5.57
2022-07-25T06:15:12.669Z,5.32
2022-07-25T06:17:51.550Z,5.10
2022-07-25T06:20:20.830Z,5.22
2022-07-25T06:22:49.712Z,6.13
2022-07-25T06:25:18.840Z,5.38
2022-07-25T06:27:49.433Z,5.13
2022-07-25T06:30:20.601Z,4.75
2022-07-25T06:32:49.393Z,4.40
2022-07-25T06:35:18.226Z,5.43
2022-07-25T06:37:47.254Z,6.03
2022-07-25T06:40:16.010Z,4.78
2022-07-25T06:42:46.325Z,4.50
2022-07-25T06:45:16.997Z,4.53
2022-07-25T06:47:48.185Z,4.82
2022-07-25T06:50:21.104Z,4.80
2022-07-25T06:52:50.021Z,6.63
2022-07-25T06:55:19.390Z,7.13
2022-07-25T06:57:48.080Z,5.20
2022-07-25T07:00:22.498Z,5.35
2022-07-25T07:02:53.571Z,3.10
2022-07-25T07:05:22.269Z,5.30
2022-07-25T07:07:51.096Z,5.13
2022-07-25T07:10:20.196Z,3.83
2022-07-25T07:12:49.047Z,3.97
2022-07-25T07:15:19.421Z,4.57
2022-07-25T07:17:47.790Z,4.68
2022-07-25T07:20:16.604Z,5.28
2022-07-25T07:22:46.069Z,4.28
2022-07-25T07:25:17.207Z,3.80
2022-07-25T07:27:49.160Z,4.28
2022-07-25T07:30:24.041Z,4.47
2022-07-25T07:32:55.794Z,5.75
2022-07-25T07:35:25.636Z,3.70
2022-07-25T07:37:56.688Z,5.78
2022-07-25T07:40:26.920Z,5.78
2022-07-25T07:42:57.223Z,4.85
2022-07-25T07:45:27.849Z,3.80
2022-07-25T07:47:57.182Z,5.75
2022-07-25T07:50:28.192Z,4.25
2022-07-25T07:52:58.354Z,4.78
2022-07-25T07:55:45.562Z,6.55
2022-07-25T07:58:16.243Z,3.50
2022-07-25T08:00:48.591Z,4.18
2022-07-25T08:03:20.617Z,6.18
2022-07-25T08:05:51.917Z,3.65
2022-07-25T08:08:21.225Z,4.32
2022-07-25T08:10:55.638Z,5.47
2022-07-25T08:13:29.061Z,5.07
2022-07-25T08:16:03.406Z,5.05
2022-07-25T08:18:33.801Z,3.85
2022-07-25T08:21:05.506Z,4.70
2022-07-25T08:23:35.564Z,5.32
2022-07-25T08:26:04.141Z,4.80
2022-07-25T08:28:32.988Z,4.82
2022-07-25T08:31:03.606Z,4.82
2022-07-25T08:33:32.379Z,5.18
2022-07-25T08:36:00.927Z,9.48
2022-07-25T08:38:30.909Z,5.55
2022-07-25T08:41:00.028Z,5.63
2022-07-25T08:43:33.063Z,6.65
2022-07-25T08:46:05.377Z,5.75
2022-07-25T08:48:34.465Z,4.85
2022-07-25T08:51:04.656Z,5.20
2022-07-25T08:53:35.105Z,5.20
2022-07-25T08:56:12.251Z,5.55
2022-07-25T08:58:44.366Z,5.03
2022-07-25T09:01:15.054Z,5.38
2022-07-25T09:03:44.339Z,5.65
2022-07-25T09:06:20.234Z,6.00
2022-07-25T09:11:32.568Z,5.60
2022-07-25T09:14:02.900Z,5.10
2022-07-25T09:16:39.022Z,6.75
2022-07-25T09:19:12.615Z,6.32
2022-07-25T09:21:43.234Z,5.15
2022-07-25T09:24:16.075Z,5.38
2022-07-25T09:26:49.281Z,6.47
2022-07-25T09:29:22.853Z,5.60
2022-07-25T09:31:54.358Z,8.75
2022-07-25T09:34:38.019Z,6.63
2022-07-25T09:37:08.928Z,5.30
2022-07-25T09:39:45.995Z,5.55
2022-07-25T09:42:27.198Z,8.88
2022-07-25T09:45:01.502Z,6.18
2022-07-25T09:47:33.234Z,5.40
2022-07-25T09:50:02.420Z,5.68
2022-07-25T09:52:31.842Z,6.10
2022-07-25T09:55:03.153Z,5.68
2022-07-25T09:57:32.013Z,5.18
2022-07-25T10:00:01.701Z,5.60
2022-07-25T10:02:42.445Z,5.40
2022-07-25T10:05:16.073Z,5.30
2022-07-25T10:07:49.428Z,6.53
2022-07-25T10:10:25.487Z,5.93
2022-07-25T10:13:11.223Z,7.07
2022-07-25T10:15:49.877Z,5.70
2022-07-25T10:18:21.788Z,5.80
2022-07-25T10:20:52.771Z,6.25
2022-07-25T10:23:23.422Z,6.18
2022-07-25T10:26:03.367Z,5.07
2022-07-25T10:28:45.445Z,5.20
2022-07-25T10:31:25.323Z,5.93
2022-07-25T10:33:58.168Z,7.10
2022-07-25T10:36:33.724Z,6.22
2022-07-25T10:39:10.640Z,5.85
2022-07-25T10:41:40.823Z,5.75
2022-07-25T10:44:14.381Z,5.85
2022-07-25T10:46:50.536Z,7.00
2022-07-25T10:49:30.931Z,5.20
2022-07-25T10:52:07.647Z,7.35
2022-07-25T10:54:38.022Z,6.53
2022-07-25T10:57:11.292Z,5.18
2022-07-25T10:59:43.278Z,4.68
2022-07-25T11:02:17.857Z,5.85
2022-07-25T11:05:10.853Z,6.05
2022-07-25T11:07:40.470Z,4.78
2022-07-25T11:10:10.527Z,4.50
2022-07-25T11:12:39.484Z,6.20
2022-07-25T11:15:13.368Z,4.93
2022-07-25T11:17:52.155Z,4.65
2022-07-25T11:20:21.897Z,4.32
2022-07-25T11:22:55.484Z,4.65
2022-07-25T11:25:25.349Z,5.40
2022-07-25T11:27:58.401Z,4.30
2022-07-25T11:30:29.830Z,5.10
2022-07-25T11:33:01.848Z,4.82
2022-07-25T11:35:33.108Z,4.75
2022-07-25T11:38:02.795Z,5.88
2022-07-25T11:40:32.922Z,4.90
2022-07-25T11:43:04.020Z,5.50
2022-07-25T11:45:36.634Z,6.57
2022-07-25T11:48:07.587Z,4.85
2022-07-25T11:50:39.389Z,5.10
2022-07-25T11:53:10.151Z,5.85
2022-07-25T11:55:41.019Z,6.70
2022-07-25T11:58:14.068Z,6.60
2022-07-25T12:00:47.181Z,5.30
2022-07-25T12:03:20.403Z,4.95
2022-07-25T12:06:08.711Z,5.72
2022-07-25T12:08:40.980Z,5.68
2022-07-25T12:11:24.663Z,5.95
2022-07-25T12:14:14.166Z,6.13
2022-07-25T12:17:02.063Z,5.55
2022-07-25T12:19:46.891Z,5.13
2022-07-25T12:22:16.772Z,5.07
2022-07-25T12:24:45.616Z,5.07
2022-07-25T12:27:19.099Z,5.05
2022-07-25T12:29:48.226Z,4.32
2022-07-25T12:32:16.977Z,6.03
2022-07-25T12:34:47.326Z,5.38
2022-07-25T12:37:17.672Z,5.15
2022-07-25T12:39:48.110Z,5.20
2022-07-25T12:42:16.883Z,4.53
2022-07-25T12:44:45.356Z,8.40
2022-07-25T12:47:14.161Z,5.47
2022-07-25T12:49:43.541Z,4.60
2022-07-25T12:52:14.004Z,4.72
2022-07-25T12:54:46.127Z,5.88
2022-07-25T12:57:16.644Z,5.88
2022-07-25T12:59:47.156Z,4.38
2022-07-25T13:02:16.437Z,5.45
2022-07-25T13:04:45.893Z,5.05
2022-07-25T13:07:16.283Z,4.75
2022-07-25T13:09:49.077Z,5.03
2022-07-25T13:12:17.821Z,6.30
2022-07-25T13:14:46.564Z,4.25
2022-07-25T13:17:16.803Z,5.45
2022-07-25T13:19:45.964Z,4.50
2022-07-25T13:22:16.369Z,5.90
2022-07-25T13:24:45.134Z,7.63
2022-07-25T13:27:15.654Z,5.88
2022-07-25T13:29:45.248Z,5.60
2022-07-25T13:32:14.540Z,5.15
2022-07-25T13:34:46.495Z,6.13
2022-07-25T13:37:15.475Z,4.70
2022-07-25T13:39:44.699Z,4.45
2022-07-25T13:42:15.405Z,6.85
2022-07-25T13:44:43.934Z,4.03
2022-07-25T13:47:12.661Z,5.47
2022-07-25T13:49:43.760Z,4.63
2022-07-25T13:52:13.765Z,5.60
2022-07-25T13:54:45.446Z,4.32
2022-07-25T13:57:37.572Z,5.82
2022-07-25T14:00:12.954Z,5.07
2022-07-25T14:02:41.996Z,4.13
2022-07-25T14:05:11.009Z,6.25
2022-07-25T14:07:42.079Z,6.57
2022-07-25T14:10:12.808Z,7.20
2022-07-25T14:12:43.707Z,4.25
2022-07-25T14:15:15.881Z,6.95
2022-07-25T14:17:45.834Z,5.45
2022-07-25T14:20:17.087Z,6.90
2022-07-25T14:22:46.395Z,4.88
2022-07-25T14:25:18.114Z,7.25
2022-07-25T14:27:49.463Z,6.05
2022-07-25T14:30:18.450Z,8.80
2022-07-25T14:32:47.285Z,5.65
2022-07-25T14:35:16.135Z,5.28
2022-07-25T14:37:47.117Z,4.60
2022-07-25T14:40:16.561Z,4.97
2022-07-25T14:42:52.494Z,6.07
2022-07-25T14:45:22.087Z,6.35
2022-07-25T14:47:54.422Z,4.80
2022-07-25T14:50:27.747Z,5.60
2022-07-25T14:52:58.150Z,6.97
2022-07-25T14:55:27.378Z,5.00
2022-07-25T14:58:09.544Z,8.23
2022-07-25T15:00:53.711Z,5.95
2022-07-25T15:03:47.452Z,5.95
2022-07-25T15:06:28.774Z,6.25
2022-07-25T15:09:09.360Z,6.22
2022-07-25T15:11:44.245Z,9.45
2022-07-25T15:14:14.631Z,4.93
2022-07-25T15:16:50.078Z,7.35
2022-07-25T15:19:23.895Z,4.68
2022-07-25T15:21:58.567Z,6.80
2022-07-25T15:24:36.333Z,4.88
2022-07-25T15:27:13.182Z,4.60
2022-07-25T15:29:43.318Z,4.40
2022-07-25T15:32:12.601Z,4.65
2022-07-25T15:34:42.802Z,5.13
2022-07-25T15:37:20.200Z,6.03
2022-07-25T15:39:51.658Z,4.88
2022-07-25T15:42:27.179Z,4.82
2022-07-25T15:48:01.642Z,5.25
2022-07-25T15:50:31.463Z,5.07
2022-07-25T15:53:02.702Z,5.75
2022-07-25T15:55:33.306Z,5.07
2022-07-25T15:58:20.553Z,5.80
2022-07-25T16:01:10.532Z,6.20
2022-07-25T16:03:43.867Z,4.85
2022-07-25T16:06:19.087Z,7.68
2022-07-25T16:08:48.379Z,5.15
2022-07-25T16:11:17.183Z,5.25
2022-07-25T16:13:45.786Z,5.25
2022-07-25T16:16:26.591Z,5.65
2022-07-25T16:19:01.657Z,4.95
2022-07-25T16:21:33.822Z,5.80
2022-07-25T16:24:03.847Z,5.57
2022-07-25T16:26:49.401Z,5.63
2022-07-25T16:29:20.583Z,7.07
2022-07-25T16:31:59.253Z,7.53
2022-07-25T16:34:36.149Z,6.07
2022-07-25T16:37:10.144Z,4.80
2022-07-25T16:39:53.739Z,6.72
2022-07-25T16:42:34.389Z,6.10
2022-07-25T16:45:59.012Z,5.40
2022-07-25T16:48:48.641Z,5.10
2022-07-25T16:51:56.439Z,7.83
2022-07-25T16:54:36.632Z,4.93
2022-07-25T16:57:33.601Z,5.95
2022-07-25T17:00:12.936Z,7.00
2022-07-25T17:02:46.432Z,8.30
2022-07-25T17:05:30.719Z,7.18
2022-07-25T17:08:05.092Z,5.22
2022-07-25T17:10:45.630Z,6.55
2022-07-25T17:13:21.332Z,7.05
2022-07-25T17:16:00.818Z,4.97
2022-07-25T17:21:35.610Z,6.63
2022-07-25T17:24:07.307Z,8.40
2022-07-25T17:26:40.354Z,12.25
2022-07-25T17:29:19.490Z,8.27
2022-07-25T17:31:49.177Z,13.75
2022-07-25T17:34:18.063Z,4.88
2022-07-25T17:36:48.535Z,5.93
2022-07-25T17:39:17.549Z,5.65
2022-07-25T17:41:48.235Z,8.10
2022-07-25T17:44:18.321Z,5.55
2022-07-25T17:46:47.759Z,5.20
2022-07-25T17:49:16.935Z,4.63
2022-07-25T17:51:45.513Z,7.47
2022-07-25T17:54:16.814Z,5.50
2022-07-25T17:56:46.358Z,7.82
2022-07-25T17:59:15.768Z,5.70
2022-07-25T18:01:44.436Z,7.07
2022-07-25T18:04:14.609Z,5.28
2022-07-25T18:06:43.506Z,9.43
2022-07-25T18:09:12.369Z,7.93
2022-07-25T18:11:43.340Z,7.70
2022-07-25T18:14:12.116Z,7.22
2022-07-25T18:16:41.552Z,8.05
2022-07-25T18:19:10.236Z,19.95
2022-07-25T18:21:39.174Z,15.52
2022-07-25T18:24:08.581Z,15.35
2022-07-25T18:26:37.482Z,10.13
2022-07-25T18:29:08.652Z,11.43
2022-07-25T18:31:37.267Z,9.52
2022-07-25T18:34:09.687Z,7.35
2022-07-25T18:36:38.365Z,21.55
2022-07-25T18:39:07.796Z,78.38
2022-07-25T18:41:37.407Z,222.02
2022-07-25T18:44:08.897Z,229.45
2022-07-25T18:46:38.228Z,79.97
2022-07-25T18:49:07.588Z,85.90
2022-07-25T18:51:36.355Z,38.70
2022-07-25T18:54:08.645Z,17.60
2022-07-25T18:56:37.971Z,9.05
2022-07-25T18:59:09.442Z,8.07
2022-07-25T19:01:38.576Z,6.43
2022-07-25T19:04:07.819Z,22.17
2022-07-25T19:06:37.883Z,6.07
2022-07-25T19:09:06.661Z,5.78
2022-07-25T19:15:05.037Z,9.43
2022-07-25T19:17:34.443Z,9.80
2022-07-25T19:20:03.464Z,5.60
2022-07-25T19:22:35.784Z,11.05
2022-07-25T19:25:08.324Z,8.18
2022-07-25T19:27:37.358Z,6.93
2022-07-25T19:30:15.301Z,6.28
2022-07-25T19:32:46.731Z,5.97
2022-07-25T19:35:16.032Z,7.78
2022-07-25T19:37:50.032Z,5.53
2022-07-25T19:40:24.268Z,5.97
2022-07-25T19:42:57.139Z,6.38
2022-07-25T19:45:27.350Z,8.50
2022-07-25T19:47:56.407Z,5.18
2022-07-25T19:50:25.130Z,5.63
2022-07-25T19:52:53.799Z,5.88
2022-07-25T19:55:23.110Z,6.35
2022-07-25T19:57:52.612Z,5.45
2022-07-25T20:00:21.348Z,6.25
2022-07-25T20:02:51.988Z,8.82
2022-07-25T20:05:20.556Z,5.53
2022-07-25T20:07:49.313Z,6.75
2022-07-25T20:10:18.171Z,5.25
2022-07-25T20:12:47.050Z,5.30
2022-07-25T20:15:15.830Z,4.85
2022-07-25T20:17:44.776Z,5.95
2022-07-25T20:20:15.333Z,5.03
2022-07-25T20:22:44.672Z,8.73
2022-07-25T20:25:16.673Z,6.10
2022-07-25T20:27:46.633Z,5.90
2022-07-25T20:30:16.130Z,7.25
2022-07-25T20:32:45.077Z,7.15
2022-07-25T20:35:15.083Z,6.35
2022-07-25T20:37:43.928Z,5.78
2022-07-25T20:40:13.158Z,6.53
2022-07-25T20:42:42.431Z,5.63
2022-07-25T20:45:11.735Z,8.32
2022-07-25T20:47:40.655Z,5.65
2022-07-25T20:50:16.719Z,6.03
2022-07-25T20:52:48.972Z,7.18
2022-07-25T20:55:17.785Z,7.13
2022-07-25T20:57:50.647Z,6.15
2022-07-25T21:00:19.862Z,4.95
2022-07-25T21:02:49.674Z,7.13
2022-07-25T21:05:20.534Z,6.43
2022-07-25T21:07:49.476Z,6.10
2022-07-25T21:10:18.429Z,5.63
2022-07-25T21:12:46.829Z,6.50
2022-07-25T21:15:16.188Z,5.80
2022-07-25T21:17:45.622Z,5.35
2022-07-25T21:20:15.925Z,6.32
2022-07-25T21:22:45.923Z,5.65
2022-07-25T21:25:15.658Z,6.05
2022-07-25T21:27:44.366Z,5.72
2022-07-25T21:30:14.232Z,5.57
2022-07-25T21:32:47.463Z,7.00
2022-07-25T21:35:16.377Z,6.82
2022-07-25T21:37:46.334Z,7.85
2022-07-25T21:40:15.878Z,6.35
2022-07-25T21:42:44.397Z,6.35
2022-07-25T21:45:14.561Z,6.25
2022-07-25T21:47:43.913Z,5.82
2022-07-25T21:50:30.274Z,6.15
2022-07-25T21:53:02.585Z,6.97
2022-07-25T21:55:31.223Z,6.88
2022-07-25T21:58:00.239Z,7.30
2022-07-25T22:00:31.453Z,5.55
2022-07-25T22:03:02.533Z,6.35
2022-07-25T22:05:31.243Z,6.78
2022-07-25T22:08:02.458Z,6.25
2022-07-25T22:10:31.481Z,7.65
2022-07-25T22:13:00.857Z,5.35
2022-07-25T22:15:29.672Z,7.40
2022-07-25T22:17:58.459Z,6.88
2022-07-25T22:20:27.470Z,7.50
2022-07-25T22:22:55.847Z,6.90
2022-07-25T22:25:25.886Z,6.97
2022-07-25T22:27:54.393Z,6.78
2022-07-25T22:30:23.052Z,8.25
2022-07-25T22:32:52.216Z,5.82
2022-07-25T22:35:20.614Z,6.32
2022-07-25T22:37:49.646Z,7.80
2022-07-25T22:40:18.341Z,5.88
2022-07-25T22:42:48.336Z,7.22
2022-07-25T22:45:16.730Z,7.65
2022-07-25T22:47:45.232Z,10.65
2022-07-25T22:50:13.972Z,6.93
2022-07-25T22:52:42.759Z,7.78
2022-07-25T22:55:11.941Z,11.30
2022-07-25T22:57:41.023Z,7.75
2022-07-25T23:00:12.542Z,7.32
2022-07-25T23:02:41.563Z,8.15
2022-07-25T23:05:10.970Z,6.85
2022-07-25T23:07:40.126Z,8.40
2022-07-25T23:10:09.539Z,7.05
2022-07-25T23:12:38.470Z,7.13
2022-07-25T23:15:07.798Z,6.25
2022-07-25T23:17:39.870Z,7.38
2022-07-25T23:20:09.347Z,7.57
2022-07-25T23:22:38.359Z,7.15
2022-07-25T23:25:10.611Z,7.82
2022-07-25T23:27:39.419Z,7.82
2022-07-25T23:30:09.428Z,6.30
2022-07-25T23:32:39.858Z,6.97
2022-07-25T23:35:09.119Z,6.55
2022-07-25T23:37:38.483Z,9.40
2022-07-25T23:40:07.779Z,7.38
2022-07-25T23:42:36.285Z,7.35
2022-07-25T23:45:05.236Z,9.13
2022-07-25T23:47:39.735Z,6.90
2022-07-25T23:50:12.644Z,6.88
2022-07-25T23:52:41.696Z,8.40
2022-07-25T23:55:11.265Z,6.50
2022-07-25T23:57:40.194Z,7.85
